Terminal Aerodrome Forecast
Issued by NWS Rapid City, SD

Home | Current Version | Previous Version | Graphics & Text | Print | Product List | Glossary On
Versions: 1 2 3 4 5 6 7 8 9 10 11 12 13 14 15
344
FTUS43 KUNR 060520
TAFRAP
TAF
KRAP 060520Z 0606/0706 VRB05KT P6SM SCT250
     FM061600 33018G30KT P6SM BKN150
     FM070100 33028G40KT P6SM BKN100=

USA.gov is the U.S. government's official web portal to all federal, state and local government web resources and services.